Time;durP1;ratioP1;P1;durP2;ratioP2;P2;SDS_P1;SDS_P2;PMS_P1;PMS_P2;Temp;Humidity;BMP_temperature;BMP_pressure;BME280_temperature;BME280_humidity;BME280_pressure;Samples;Min_cycle;Max_cycle;Signal;HPM_P1;HPM_P2
2024/04/19 00:00:54;;;;;;;;;;;;;;;10.03;nan;100098.44;4570397;25;20010;-70
2024/04/19 00:02:55;;;;;;;;;;;;;;;10.04;nan;100097.47;4572072;26;19934;-71
2024/04/19 00:04:55;;;;;;;;;;;;;;;10.07;nan;100095.38;4570642;26;19928;-71
2024/04/19 00:06:56;;;;;;;;;;;;;;;10.12;nan;100090.44;4570618;26;19988;-71
2024/04/19 00:08:56;;;;;;;;;;;;;;;10.17;nan;100087.34;4570799;26;20435;-71
2024/04/19 00:10:57;;;;;;;;;;;;;;;10.02;nan;100086.91;4538231;26;19928;-71
2024/04/19 00:12:57;;;;;;;;;;;;;;;10.04;nan;100081.44;4570085;26;19928;-70
2024/04/19 00:14:58;;;;;;;;;;;;;;;10.14;nan;100085.78;4570624;26;19967;-70
2024/04/19 00:16:58;;;;;;;;;;;;;;;10.12;nan;100086.94;4570953;26;20376;-69
2024/04/19 00:18:58;;;;;;;;;;;;;;;10.16;nan;100085.63;4570644;26;19927;-70
2024/04/19 00:20:59;;;;;;;;;;;;;;;10.17;nan;100081.16;4570137;25;20360;-71
2024/04/19 00:22:59;;;;;;;;;;;;;;;9.91;nan;100082.56;4570009;26;20387;-70
2024/04/19 00:25:00;;;;;;;;;;;;;;;9.81;nan;100076.38;4568596;26;19955;-70
2024/04/19 00:27:00;;;;;;;;;;;;;;;9.89;nan;100065.00;4570604;26;19934;-70
2024/04/19 00:29:00;;;;;;;;;;;;;;;9.93;nan;100063.72;4570184;26;19927;-70
2024/04/19 00:31:01;;;;;;;;;;;;;;;9.95;nan;100065.28;4570258;25;20332;-70
2024/04/19 00:33:01;;;;;;;;;;;;;;;9.99;nan;100065.84;4538143;26;20009;-70
2024/04/19 00:35:02;;;;;;;;;;;;;;;9.70;nan;100076.47;4570713;26;20409;-70
2024/04/19 00:37:02;;;;;;;;;;;;;;;9.65;nan;100066.22;4570379;26;19939;-70
2024/04/19 00:39:02;;;;;;;;;;;;;;;9.89;nan;100065.81;4571428;26;19927;-70
2024/04/19 00:41:03;;;;;;;;;;;;;;;9.95;nan;100067.97;4570334;25;20435;-70
2024/04/19 00:43:03;;;;;;;;;;;;;;;9.81;nan;100071.88;4569391;26;20365;-70
2024/04/19 00:45:23;;;;;;;;;;;;;;;9.76;nan;100066.09;4570547;26;19927;-70
2024/04/19 00:47:23;;;;;;;;;;;;;;;9.61;nan;100070.16;4570758;26;20284;-70
2024/04/19 00:49:24;;;;;;;;;;;;;;;9.88;nan;100071.31;4569270;25;19934;-70
2024/04/19 00:51:24;;;;;;;;;;;;;;;9.66;nan;100071.44;4569464;26;19935;-70
2024/04/19 00:53:27;;;;;;;;;;;;;;;9.70;nan;100069.34;4537180;26;19996;-69
2024/04/19 00:55:28;;;;;;;;;;;;;;;9.61;nan;100065.66;4568885;26;19927;-69
2024/04/19 00:57:29;;;;;;;;;;;;;;;9.44;nan;100069.00;4569556;26;19931;-70
2024/04/19 00:59:30;;;;;;;;;;;;;;;9.55;nan;100065.34;4569881;25;20456;-70
2024/04/19 01:01:30;;;;;;;;;;;;;;;9.49;nan;100062.28;4570350;26;19999;-70
2024/04/19 01:03:31;;;;;;;;;;;;;;;9.45;nan;100058.19;4569535;26;19935;-70
2024/04/19 01:05:31;;;;;;;;;;;;;;;9.30;nan;100051.56;4569487;26;20370;-70
2024/04/19 01:07:32;;;;;;;;;;;;;;;9.21;nan;100054.06;4569633;26;20252;-70
2024/04/19 01:09:32;;;;;;;;;;;;;;;9.29;nan;100049.88;4568920;25;19927;-72
2024/04/19 01:11:33;;;;;;;;;;;;;;;9.52;nan;100048.66;4569136;26;19928;-71
2024/04/19 01:13:34;;;;;;;;;;;;;;;9.50;nan;100047.09;4569815;26;19995;-70
2024/04/19 01:15:35;;;;;;;;;;;;;;;9.36;nan;100040.31;4569986;26;19951;-71
2024/04/19 01:17:35;;;;;;;;;;;;;;;9.36;nan;100043.84;4569524;26;20352;-71
2024/04/19 01:19:36;;;;;;;;;;;;;;;9.23;nan;100040.56;4569708;25;19935;-72
2024/04/19 01:21:36;;;;;;;;;;;;;;;9.43;nan;100041.50;4539409;26;19935;-71
2024/04/19 01:23:37;;;;;;;;;;;;;;;9.38;nan;100049.03;4586252;26;19939;-71
2024/04/19 01:25:37;;;;;;;;;;;;;;;9.13;nan;100035.22;4587782;26;19928;-72
2024/04/19 01:27:38;;;;;;;;;;;;;;;9.35;nan;100038.66;4587524;26;19931;-70
2024/04/19 01:29:40;;;;;;;;;;;;;;;9.17;nan;100031.28;4589269;25;19924;-72
2024/04/19 01:31:41;;;;;;;;;;;;;;;9.33;nan;100029.94;4584119;26;19934;-70
2024/04/19 01:33:42;;;;;;;;;;;;;;;9.25;nan;100030.63;4574305;26;19927;-71
2024/04/19 01:35:42;;;;;;;;;;;;;;;9.21;nan;100035.38;4578941;26;19928;-70
2024/04/19 01:37:43;;;;;;;;;;;;;;;9.11;nan;100029.19;4570210;26;20352;-71
2024/04/19 01:39:43;;;;;;;;;;;;;;;9.22;nan;100033.56;4560089;25;20365;-71
2024/04/19 01:41:43;;;;;;;;;;;;;;;9.21;nan;100035.38;4569295;26;19934;-70
2024/04/19 01:43:44;;;;;;;;;;;;;;;9.18;nan;100030.31;4576227;26;19934;-71
2024/04/19 01:45:44;;;;;;;;;;;;;;;9.47;nan;100021.53;4553696;26;19928;-70
2024/04/19 01:47:45;;;;;;;;;;;;;;;9.42;nan;100022.94;4541943;26;19932;-70
2024/04/19 01:49:45;;;;;;;;;;;;;;;9.49;nan;100016.06;4540244;26;20021;-71
2024/04/19 01:51:46;;;;;;;;;;;;;;;9.26;nan;100015.47;4538578;26;19934;-70
2024/04/19 01:53:46;;;;;;;;;;;;;;;9.61;nan;100016.78;4538891;26;20719;-70
2024/04/19 01:55:47;;;;;;;;;;;;;;;9.50;nan;100013.25;4538019;26;19959;-71
2024/04/19 01:57:47;;;;;;;;;;;;;;;9.43;nan;100012.13;4538382;26;19928;-71
2024/04/19 01:59:48;;;;;;;;;;;;;;;9.43;nan;100017.47;4538592;26;19935;-70
2024/04/19 02:01:48;;;;;;;;;;;;;;;9.37;nan;100010.00;4536452;26;20384;-71
2024/04/19 02:03:48;;;;;;;;;;;;;;;9.48;nan;100009.88;4538395;26;19935;-71
2024/04/19 02:05:49;;;;;;;;;;;;;;;9.48;nan;100001.88;4538288;26;19940;-71
2024/04/19 02:07:50;;;;;;;;;;;;;;;9.52;nan;100000.63;4538113;26;19928;-71
2024/04/19 02:09:50;;;;;;;;;;;;;;;9.55;nan;99998.63;4538568;26;19928;-70
2024/04/19 02:11:51;;;;;;;;;;;;;;;9.53;nan;99998.78;4536969;26;19928;-70
2024/04/19 02:13:51;;;;;;;;;;;;;;;9.48;nan;99993.88;4537787;26;19939;-71
2024/04/19 02:15:51;;;;;;;;;;;;;;;9.46;nan;99987.00;4536616;26;19997;-71
2024/04/19 02:17:52;;;;;;;;;;;;;;;9.35;nan;99979.97;4537440;26;19996;-70
2024/04/19 02:19:52;;;;;;;;;;;;;;;9.41;nan;99989.22;4535723;26;20504;-70
2024/04/19 02:21:52;;;;;;;;;;;;;;;9.48;nan;99988.53;4536870;26;19934;-70
2024/04/19 02:23:56;;;;;;;;;;;;;;;9.34;nan;99981.78;4537370;26;20364;-70
2024/04/19 02:25:56;;;;;;;;;;;;;;;9.22;nan;99982.88;4536878;26;20338;-70
2024/04/19 02:32:34;;;;;;;;;;;;;;;9.40;nan;99971.56;4537316;26;19935;-70
2024/04/19 02:34:35;;;;;;;;;;;;;;;9.32;nan;99975.72;4540062;26;19928;-69
2024/04/19 02:36:37;;;;;;;;;;;;;;;9.25;nan;99968.44;4552398;26;19928;-71
2024/04/19 02:38:39;;;;;;;;;;;;;;;9.41;nan;99960.72;4553279;26;19935;-72
2024/04/19 02:40:49;;;;;;;;;;;;;;;9.41;nan;99962.53;4554751;26;19934;-74
2024/04/19 02:42:58;;;;;;;;;;;;;;;9.48;nan;99950.34;4555892;26;19936;-71
2024/04/19 02:44:59;;;;;;;;;;;;;;;9.72;nan;99949.91;4547112;26;19936;-70
2024/04/19 02:47:00;;;;;;;;;;;;;;;9.57;nan;99951.31;4552368;26;19920;-71
2024/04/19 02:49:02;;;;;;;;;;;;;;;9.50;nan;99948.34;4553140;26;19988;-72
2024/04/19 02:51:03;;;;;;;;;;;;;;;9.65;nan;99944.31;4540343;26;19928;-69
2024/04/19 02:53:03;;;;;;;;;;;;;;;9.64;nan;99936.41;4540135;26;19927;-72
2024/04/19 02:55:04;;;;;;;;;;;;;;;9.48;nan;99940.50;4540526;26;19934;-70
2024/04/19 02:57:04;;;;;;;;;;;;;;;9.51;nan;99940.22;4540497;26;19927;-70
2024/04/19 02:59:04;;;;;;;;;;;;;;;9.32;nan;99938.38;4541889;26;19939;-70
2024/04/19 03:01:05;;;;;;;;;;;;;;;9.41;nan;99936.72;4542855;26;19935;-70
2024/04/19 03:03:05;;;;;;;;;;;;;;;9.34;nan;99940.94;4543286;26;20436;-70
2024/04/19 03:05:05;;;;;;;;;;;;;;;9.15;nan;99931.06;4546487;26;19935;-71
2024/04/19 03:07:06;;;;;;;;;;;;;;;9.38;nan;99928.97;4542544;26;20392;-70
2024/04/19 03:09:06;;;;;;;;;;;;;;;9.33;nan;99928.56;4540183;26;19928;-71
2024/04/19 03:11:06;;;;;;;;;;;;;;;9.39;nan;99935.19;4540143;26;20463;-71
2024/04/19 03:13:08;;;;;;;;;;;;;;;9.55;nan;99924.78;4509272;26;19933;-70
2024/04/19 03:15:09;;;;;;;;;;;;;;;9.26;nan;99922.13;4542282;26;19935;-70
2024/04/19 03:17:09;;;;;;;;;;;;;;;9.48;nan;99921.00;4540455;26;20578;-70
2024/04/19 03:19:09;;;;;;;;;;;;;;;9.30;nan;99910.16;4540260;26;19928;-70
2024/04/19 03:21:10;;;;;;;;;;;;;;;9.35;nan;99910.59;4540068;26;19928;-71
2024/04/19 03:23:10;;;;;;;;;;;;;;;9.22;nan;99897.50;4539614;26;19954;-69
2024/04/19 03:25:10;;;;;;;;;;;;;;;9.19;nan;99909.31;4539991;26;19960;-70
2024/04/19 03:27:12;;;;;;;;;;;;;;;9.19;nan;99895.97;4539550;26;19927;-71
2024/04/19 03:29:12;;;;;;;;;;;;;;;9.08;nan;99895.28;4510141;26;19936;-71
2024/04/19 03:31:13;;;;;;;;;;;;;;;9.26;nan;99895.44;4542132;26;20434;-70
2024/04/19 03:33:18;;;;;;;;;;;;;;;9.11;nan;99898.50;4538889;26;19928;-70
2024/04/19 03:35:20;;;;;;;;;;;;;;;9.04;nan;99892.03;4537467;26;19928;-71
2024/04/19 03:37:21;;;;;;;;;;;;;;;8.99;nan;99886.28;4539572;26;19927;-70
2024/04/19 03:39:22;;;;;;;;;;;;;;;9.24;nan;99884.88;4539404;26;20485;-70
2024/04/19 03:41:23;;;;;;;;;;;;;;;9.08;nan;99888.09;4506728;26;19969;-71
2024/04/19 03:43:24;;;;;;;;;;;;;;;9.38;nan;99878.28;4540258;26;19935;-70
2024/04/19 03:45:44;;;;;;;;;;;;;;;9.51;nan;99878.00;4546019;26;19948;-70
2024/04/19 03:47:45;;;;;;;;;;;;;;;9.42;nan;99877.03;4547283;26;19934;-71
2024/04/19 03:49:45;;;;;;;;;;;;;;;9.54;nan;99876.88;4545542;26;19928;-70
2024/04/19 03:51:45;;;;;;;;;;;;;;;9.54;nan;99869.72;4541899;26;19936;-71
2024/04/19 03:53:46;;;;;;;;;;;;;;;9.71;nan;99865.47;4539098;26;19983;-71
2024/04/19 03:55:46;;;;;;;;;;;;;;;9.32;nan;99860.19;4539012;26;19939;-71
2024/04/19 03:57:46;;;;;;;;;;;;;;;9.27;nan;99865.09;4539241;26;19943;-71
2024/04/19 03:59:47;;;;;;;;;;;;;;;9.27;nan;99857.09;4538527;26;19928;-71
2024/04/19 04:01:48;;;;;;;;;;;;;;;9.05;nan;99861.75;4540492;26;20416;-73
2024/04/19 04:03:52;;;;;;;;;;;;;;;9.23;nan;99858.38;4544356;26;19927;-72
2024/04/19 04:05:52;;;;;;;;;;;;;;;9.42;nan;99858.34;4543947;26;19934;-71
2024/04/19 04:07:53;;;;;;;;;;;;;;;9.32;nan;99847.69;4541300;26;19928;-71
2024/04/19 04:09:54;;;;;;;;;;;;;;;9.16;nan;99856.25;4539229;26;19999;-71
2024/04/19 04:11:54;;;;;;;;;;;;;;;9.17;nan;99835.75;4538546;26;20286;-71
2024/04/19 04:13:54;;;;;;;;;;;;;;;9.22;nan;99836.16;4541728;26;19934;-71
2024/04/19 04:15:55;;;;;;;;;;;;;;;9.48;nan;99839.09;4538377;26;19940;-71
2024/04/19 04:17:55;;;;;;;;;;;;;;;9.49;nan;99846.13;4539851;26;19935;-71
2024/04/19 04:19:56;;;;;;;;;;;;;;;9.28;nan;99832.09;4507700;26;19929;-71
2024/04/19 04:21:57;;;;;;;;;;;;;;;9.19;nan;99839.13;4539195;26;19928;-74
2024/04/19 04:23:57;;;;;;;;;;;;;;;9.12;nan;99835.31;4539776;26;20006;-71
2024/04/19 04:25:58;;;;;;;;;;;;;;;9.39;nan;99831.94;4540203;26;19940;-71
2024/04/19 04:27:58;;;;;;;;;;;;;;;9.39;nan;99837.28;4544710;26;19928;-72
2024/04/19 04:29:58;;;;;;;;;;;;;;;9.09;nan;99835.63;4545853;26;20356;-72
2024/04/19 04:31:58;;;;;;;;;;;;;;;9.17;nan;99827.75;4541955;26;19934;-73
2024/04/19 04:33:59;;;;;;;;;;;;;;;9.01;nan;99830.97;4544598;26;20253;-71
2024/04/19 04:35:59;;;;;;;;;;;;;;;9.07;nan;99826.91;4547616;26;19972;-72
2024/04/19 04:37:59;;;;;;;;;;;;;;;9.12;nan;99828.19;4543706;26;19962;-70
2024/04/19 04:40:00;;;;;;;;;;;;;;;9.49;nan;99832.78;4544183;26;20000;-71
2024/04/19 04:42:00;;;;;;;;;;;;;;;9.07;nan;99826.91;4546907;26;19939;-70
2024/04/19 04:44:00;;;;;;;;;;;;;;;9.13;nan;99827.22;4543572;26;19932;-70
2024/04/19 04:46:00;;;;;;;;;;;;;;;9.01;nan;99828.31;4545693;26;19928;-71
2024/04/19 04:48:01;;;;;;;;;;;;;;;9.47;nan;99808.06;4549575;26;19928;-72
2024/04/19 04:50:01;;;;;;;;;;;;;;;9.13;nan;99810.34;4550322;26;19927;-71
2024/04/19 04:52:01;;;;;;;;;;;;;;;9.09;nan;99819.63;4540353;26;19975;-73
2024/04/19 04:54:02;;;;;;;;;;;;;;;8.94;nan;99816.53;4543900;26;19961;-71
2024/04/19 04:56:02;;;;;;;;;;;;;;;9.09;nan;99817.78;4547556;26;20041;-71
2024/04/19 04:58:04;;;;;;;;;;;;;;;9.26;nan;99828.75;4542072;26;20221;-70
2024/04/19 05:00:05;;;;;;;;;;;;;;;9.27;nan;99822.41;4545315;26;20257;-71
2024/04/19 05:02:05;;;;;;;;;;;;;;;9.34;nan;99824.38;4516950;26;19936;-71
2024/04/19 05:04:05;;;;;;;;;;;;;;;9.39;nan;99825.78;4548107;26;19940;-70
2024/04/19 05:06:06;;;;;;;;;;;;;;;9.36;nan;99824.22;4547763;26;19945;-71
2024/04/19 05:08:06;;;;;;;;;;;;;;;9.43;nan;99824.50;4544193;26;19936;-70
2024/04/19 05:10:06;;;;;;;;;;;;;;;9.35;nan;99827.91;4546313;26;19928;-70
2024/04/19 05:12:08;;;;;;;;;;;;;;;9.59;nan;99829.25;4545369;26;19935;-70
2024/04/19 05:14:08;;;;;;;;;;;;;;;9.32;nan;99836.19;4547816;26;19928;-72
2024/04/19 05:16:09;;;;;;;;;;;;;;;9.42;nan;99842.34;4548081;26;20396;-72
2024/04/19 05:18:09;;;;;;;;;;;;;;;9.86;nan;99835.63;4544626;26;19952;-71
2024/04/19 05:20:09;;;;;;;;;;;;;;;9.36;nan;99834.91;4540068;26;19935;-70
2024/04/19 05:22:10;;;;;;;;;;;;;;;9.25;nan;99835.91;4538639;26;20345;-71
2024/04/19 05:24:10;;;;;;;;;;;;;;;9.27;nan;99823.28;4538771;26;20360;-70
2024/04/19 05:26:10;;;;;;;;;;;;;;;9.15;nan;99825.25;4538180;26;19935;-71
2024/04/19 05:28:11;;;;;;;;;;;;;;;9.20;nan;99820.31;4538992;26;19953;-70
2024/04/19 05:30:11;;;;;;;;;;;;;;;9.10;nan;99816.81;4538540;26;19936;-70
2024/04/19 05:32:11;;;;;;;;;;;;;;;8.96;nan;99828.75;4538488;26;19928;-71
2024/04/19 05:34:12;;;;;;;;;;;;;;;9.31;nan;99835.31;4538876;26;20445;-71
2024/04/19 05:36:12;;;;;;;;;;;;;;;9.33;nan;99819.19;4538143;26;20533;-71
2024/04/19 05:38:12;;;;;;;;;;;;;;;9.21;nan;99829.16;4538792;26;20000;-71
2024/04/19 05:40:13;;;;;;;;;;;;;;;9.06;nan;99834.09;4538321;26;19928;-70
2024/04/19 05:42:13;;;;;;;;;;;;;;;9.10;nan;99837.31;4537367;26;19928;-71
2024/04/19 05:44:18;;;;;;;;;;;;;;;9.06;nan;99828.75;4538321;26;20391;-71
2024/04/19 05:46:19;;;;;;;;;;;;;;;9.04;nan;99823.53;4549057;26;19944;-72
2024/04/19 05:48:28;;;;;;;;;;;;;;;9.09;nan;99809.78;4552552;26;19928;-71
2024/04/19 05:50:31;;;;;;;;;;;;;;;8.80;nan;99825.78;4552952;26;20198;-71
2024/04/19 05:52:32;;;;;;;;;;;;;;;9.15;nan;99808.38;4552160;26;19928;-72
2024/04/19 05:54:33;;;;;;;;;;;;;;;9.25;nan;99811.88;4553544;26;19935;-75
2024/04/19 05:56:33;;;;;;;;;;;;;;;9.10;nan;99808.81;4554096;26;19920;-71
2024/04/19 05:58:34;;;;;;;;;;;;;;;9.01;nan;99802.50;4556628;26;20266;-71
2024/04/19 06:00:34;;;;;;;;;;;;;;;8.80;nan;99810.63;4517020;26;19963;-71
2024/04/19 06:02:35;;;;;;;;;;;;;;;9.14;nan;99812.03;4538829;26;20326;-70
2024/04/19 06:04:35;;;;;;;;;;;;;;;9.02;nan;99808.69;4540102;26;19935;-72
2024/04/19 06:06:35;;;;;;;;;;;;;;;8.63;nan;99806.84;4539036;26;19973;-72
2024/04/19 06:08:36;;;;;;;;;;;;;;;8.97;nan;99813.59;4505888;26;20365;-71
2024/04/19 06:10:36;;;;;;;;;;;;;;;8.99;nan;99808.94;4505398;26;19928;-72
2024/04/19 06:12:36;;;;;;;;;;;;;;;8.89;nan;99812.44;4536946;26;19945;-71
2024/04/19 06:14:37;;;;;;;;;;;;;;;9.35;nan;99804.72;4537213;26;19996;-71
2024/04/19 06:16:37;;;;;;;;;;;;;;;8.82;nan;99807.84;4537463;26;20237;-71
2024/04/19 06:18:37;;;;;;;;;;;;;;;9.37;nan;99793.91;4537766;26;20364;-71
2024/04/19 06:20:39;;;;;;;;;;;;;;;8.96;nan;99803.91;4536907;26;19928;-72
2024/04/19 06:22:39;;;;;;;;;;;;;;;8.63;nan;99797.97;4536623;26;19934;-71
2024/04/19 06:24:40;;;;;;;;;;;;;;;8.75;nan;99810.22;4539985;26;19928;-71
2024/04/19 06:26:40;;;;;;;;;;;;;;;8.83;nan;99804.19;4540010;26;19928;-71
2024/04/19 06:28:41;;;;;;;;;;;;;;;8.76;nan;99795.91;4540090;26;20425;-71
2024/04/19 06:30:41;;;;;;;;;;;;;;;8.82;nan;99798.00;4538481;26;19991;-71
2024/04/19 06:32:41;;;;;;;;;;;;;;;8.64;nan;99795.19;4539592;26;19981;-71
2024/04/19 06:34:42;;;;;;;;;;;;;;;8.60;nan;99787.63;4540550;26;19927;-72
2024/04/19 06:36:42;;;;;;;;;;;;;;;8.61;nan;99775.97;4540133;26;19935;-72
2024/04/19 06:38:42;;;;;;;;;;;;;;;8.72;nan;99781.16;4538511;26;20330;-71
2024/04/19 06:40:44;;;;;;;;;;;;;;;8.53;nan;99782.81;4540391;26;19932;-71
2024/04/19 06:42:45;;;;;;;;;;;;;;;8.70;nan;99772.47;4540000;26;19927;-72
2024/04/19 06:44:45;;;;;;;;;;;;;;;8.65;nan;99777.38;4539888;26;20726;-71
2024/04/19 06:46:46;;;;;;;;;;;;;;;8.51;nan;99758.13;4541204;26;19939;-70
2024/04/19 06:48:47;;;;;;;;;;;;;;;8.89;nan;99756.47;4540319;26;19938;-71
2024/04/19 06:50:47;;;;;;;;;;;;;;;9.11;nan;99762.50;4540149;26;19928;-70
2024/04/19 06:52:47;;;;;;;;;;;;;;;9.09;nan;99763.63;4539313;26;19932;-71
2024/04/19 06:54:48;;;;;;;;;;;;;;;8.57;nan;99756.75;4539120;26;19936;-70
2024/04/19 06:56:48;;;;;;;;;;;;;;;9.03;nan;99751.69;4539670;26;19935;-71
2024/04/19 06:58:48;;;;;;;;;;;;;;;8.79;nan;99757.47;4540326;26;19928;-72
2024/04/19 07:00:49;;;;;;;;;;;;;;;8.73;nan;99756.19;4539732;26;20256;-71
2024/04/19 07:02:50;;;;;;;;;;;;;;;8.89;nan;99745.81;4539815;26;20252;-70
2024/04/19 07:04:53;;;;;;;;;;;;;;;8.93;nan;99748.19;4540347;26;19997;-71
2024/04/19 07:06:54;;;;;;;;;;;;;;;8.46;nan;99754.16;4540038;26;19931;-71
2024/04/19 07:08:54;;;;;;;;;;;;;;;8.53;nan;99755.34;4539840;26;19928;-71
2024/04/19 07:10:54;;;;;;;;;;;;;;;8.36;nan;99744.34;4539211;26;19935;-73
2024/04/19 07:12:55;;;;;;;;;;;;;;;8.41;nan;99741.25;4539136;26;19939;-71
2024/04/19 07:14:55;;;;;;;;;;;;;;;8.18;nan;99754.84;4539940;26;19992;-72
2024/04/19 07:16:55;;;;;;;;;;;;;;;8.31;nan;99745.75;4542588;26;19932;-71
2024/04/19 07:18:56;;;;;;;;;;;;;;;7.94;nan;99748.03;4540847;26;19940;-71
2024/04/19 07:20:56;;;;;;;;;;;;;;;8.12;nan;99739.41;4552206;26;19928;-71
2024/04/19 07:22:57;;;;;;;;;;;;;;;7.97;nan;99734.47;4556024;26;19928;-72
2024/04/19 07:24:57;;;;;;;;;;;;;;;8.15;nan;99740.97;4544177;26;19928;-73
2024/04/19 07:26:58;;;;;;;;;;;;;;;8.24;nan;99734.81;4540514;26;19935;-70
2024/04/19 07:28:59;;;;;;;;;;;;;;;8.32;nan;99740.28;4540057;26;20459;-72
2024/04/19 07:31:00;;;;;;;;;;;;;;;8.53;nan;99734.88;4508317;26;19969;-70
2024/04/19 07:33:00;;;;;;;;;;;;;;;8.05;nan;99732.94;4539762;26;19928;-70
2024/04/19 07:35:01;;;;;;;;;;;;;;;8.06;nan;99726.63;4537824;26;19928;-71
2024/04/19 07:37:01;;;;;;;;;;;;;;;8.20;nan;99712.94;4539644;26;20357;-71
2024/04/19 07:39:02;;;;;;;;;;;;;;;8.34;nan;99721.50;4539431;26;20330;-72
2024/04/19 07:41:03;;;;;;;;;;;;;;;8.78;nan;99703.31;4539427;26;19935;-71
2024/04/19 07:43:04;;;;;;;;;;;;;;;8.51;nan;99693.38;4538344;26;19977;-71
2024/04/19 07:45:04;;;;;;;;;;;;;;;8.27;nan;99695.44;4507627;26;20389;-71
2024/04/19 07:47:04;;;;;;;;;;;;;;;8.26;nan;99703.56;4506914;26;19941;-71
2024/04/19 07:49:06;;;;;;;;;;;;;;;8.27;nan;99692.75;4507735;26;20258;-70
2024/04/19 07:51:06;;;;;;;;;;;;;;;8.48;nan;99694.50;4538621;26;20287;-71
2024/04/19 07:53:08;;;;;;;;;;;;;;;8.08;nan;99690.06;4538771;26;19928;-72
2024/04/19 07:55:08;;;;;;;;;;;;;;;8.33;nan;99694.03;4537872;26;19975;-70
2024/04/19 07:57:09;;;;;;;;;;;;;;;8.33;nan;99687.84;4538644;26;19932;-71
2024/04/19 07:59:09;;;;;;;;;;;;;;;8.27;nan;99678.59;4539446;26;19928;-71
2024/04/19 08:01:09;;;;;;;;;;;;;;;8.09;nan;99676.63;4539454;26;19939;-71
2024/04/19 08:03:10;;;;;;;;;;;;;;;8.20;nan;99669.47;4540199;26;20260;-71
2024/04/19 08:05:11;;;;;;;;;;;;;;;7.97;nan;99683.88;4539045;26;20608;-72
2024/04/19 08:07:11;;;;;;;;;;;;;;;7.89;nan;99673.09;4539954;26;19935;-72
2024/04/19 08:09:12;;;;;;;;;;;;;;;7.89;nan;99667.75;4539059;26;19928;-71
2024/04/19 08:11:12;;;;;;;;;;;;;;;8.35;nan;99675.25;4507312;26;19953;-73
2024/04/19 08:13:13;;;;;;;;;;;;;;;7.86;nan;99665.34;4538337;26;19928;-73
2024/04/19 08:15:13;;;;;;;;;;;;;;;7.95;nan;99667.19;4539012;26;20418;-72
2024/04/19 08:17:14;;;;;;;;;;;;;;;8.05;nan;99671.69;4539063;26;20037;-73
2024/04/19 08:19:15;;;;;;;;;;;;;;;7.70;nan;99668.53;4507131;26;19960;-72
2024/04/19 08:21:15;;;;;;;;;;;;;;;7.69;nan;99674.00;4539067;26;19928;-72
2024/04/19 08:23:16;;;;;;;;;;;;;;;7.42;nan;99662.97;4538459;26;19928;-71
2024/04/19 08:25:16;;;;;;;;;;;;;;;7.75;nan;99665.47;4539226;26;20034;-72
2024/04/19 08:27:17;;;;;;;;;;;;;;;7.63;nan;99652.28;4541198;26;19936;-72
2024/04/19 08:29:17;;;;;;;;;;;;;;;7.51;nan;99664.00;4543476;26;19928;-71
2024/04/19 08:31:17;;;;;;;;;;;;;;;7.75;nan;99666.31;4539210;26;19940;-71
2024/04/19 08:33:17;;;;;;;;;;;;;;;7.42;nan;99651.50;4536496;26;20016;-72
2024/04/19 08:35:18;;;;;;;;;;;;;;;7.46;nan;99648.44;4538953;26;19996;-72
2024/04/19 08:37:18;;;;;;;;;;;;;;;7.58;nan;99638.53;4539274;26;19928;-72
2024/04/19 08:39:19;;;;;;;;;;;;;;;8.03;nan;99621.25;4538378;26;19928;-72
2024/04/19 08:41:23;;;;;;;;;;;;;;;7.44;nan;99628.28;4538272;26;19935;-72
2024/04/19 08:43:24;;;;;;;;;;;;;;;7.70;nan;99612.66;4538697;26;19928;-71
2024/04/19 08:45:26;;;;;;;;;;;;;;;7.40;nan;99609.09;4539409;26;19996;-71
2024/04/19 08:47:31;;;;;;;;;;;;;;;7.53;nan;99600.88;4539132;26;19927;-71
2024/04/19 08:49:32;;;;;;;;;;;;;;;7.50;nan;99593.16;4539412;26;20321;-72
2024/04/19 08:51:32;;;;;;;;;;;;;;;7.50;nan;99593.16;4539826;26;19971;-72
2024/04/19 08:53:33;;;;;;;;;;;;;;;7.47;nan;99585.44;4507093;26;20008;-72
2024/04/19 08:55:34;;;;;;;;;;;;;;;7.59;nan;99581.69;4507168;26;20372;-72
2024/04/19 08:57:39;;;;;;;;;;;;;;;7.63;nan;99580.47;4541554;26;20572;-71
2024/04/19 08:59:40;;;;;;;;;;;;;;;7.55;nan;99575.00;4539363;26;19935;-70
2024/04/19 09:01:40;;;;;;;;;;;;;;;7.80;nan;99575.44;4538548;26;20000;-71
2024/04/19 09:03:41;;;;;;;;;;;;;;;7.43;nan;99565.44;4539479;26;19940;-71
2024/04/19 09:05:43;;;;;;;;;;;;;;;7.44;nan;99561.78;4539882;26;19931;-72
2024/04/19 09:07:43;;;;;;;;;;;;;;;7.65;nan;99549.22;4507988;26;19928;-71
2024/04/19 09:09:44;;;;;;;;;;;;;;;7.76;nan;99540.28;4539116;26;19928;-71
2024/04/19 09:11:45;;;;;;;;;;;;;;;7.65;nan;99546.56;4540161;26;19936;-72
2024/04/19 09:13:46;;;;;;;;;;;;;;;7.71;nan;99531.03;4550556;26;19928;-72
2024/04/19 09:15:47;;;;;;;;;;;;;;;7.71;nan;99529.19;4554309;26;20000;-71
2024/04/19 09:17:49;;;;;;;;;;;;;;;7.97;nan;99534.81;4553560;26;19940;-73
2024/04/19 09:19:50;;;;;;;;;;;;;;;7.49;nan;99530.28;4555143;26;19939;-73
2024/04/19 09:21:50;;;;;;;;;;;;;;;7.56;nan;99530.59;4553091;26;19927;-73
2024/04/19 09:23:51;;;;;;;;;;;;;;;7.64;nan;99541.38;4543686;26;19935;-72
2024/04/19 09:26:00;;;;;;;;;;;;;;;7.50;nan;99524.00;4538556;26;19975;-73
2024/04/19 09:28:00;;;;;;;;;;;;;;;7.89;nan;99529.34;4538396;26;19964;-72
2024/04/19 09:30:01;;;;;;;;;;;;;;;8.17;nan;99526.00;4539247;26;19928;-71
2024/04/19 09:32:02;;;;;;;;;;;;;;;7.69;nan;99517.03;4538328;26;20694;-72
2024/04/19 09:34:04;;;;;;;;;;;;;;;7.59;nan;99517.03;4539466;26;19928;-74
2024/04/19 09:36:05;;;;;;;;;;;;;;;7.73;nan;99524.59;4542317;26;19946;-71
2024/04/19 09:38:06;;;;;;;;;;;;;;;7.58;nan;99515.34;4541891;26;19928;-71
2024/04/19 09:40:07;;;;;;;;;;;;;;;7.68;nan;99512.69;4541601;26;19928;-73
2024/04/19 09:42:08;;;;;;;;;;;;;;;7.39;nan;99511.69;4542875;26;20000;-72
2024/04/19 09:44:14;;;;;;;;;;;;;;;7.54;nan;99517.44;4544612;26;19928;-72
2024/04/19 09:46:25;;;;;;;;;;;;;;;7.46;nan;99496.03;4544458;26;19935;-72
2024/04/19 09:48:28;;;;;;;;;;;;;;;7.55;nan;99505.81;4543885;26;19928;-73
2024/04/19 09:50:33;;;;;;;;;;;;;;;7.59;nan;99498.41;4545380;26;19935;-72
2024/04/19 09:52:36;;;;;;;;;;;;;;;7.58;nan;99499.38;4524432;26;20289;-74
2024/04/19 09:54:38;;;;;;;;;;;;;;;7.53;nan;99498.94;4548776;26;19935;-74
2024/04/19 09:56:50;;;;;;;;;;;;;;;7.59;nan;99507.22;4546391;26;19939;-74
2024/04/19 09:58:51;;;;;;;;;;;;;;;7.87;nan;99496.72;4547538;26;19928;-73
2024/04/19 10:00:52;;;;;;;;;;;;;;;7.50;nan;99492.09;4541060;26;20788;-73
2024/04/19 10:02:52;;;;;;;;;;;;;;;7.77;nan;99486.09;4539687;26;20262;-73
2024/04/19 10:04:53;;;;;;;;;;;;;;;7.74;nan;99493.50;4541308;26;19947;-72
2024/04/19 10:06:54;;;;;;;;;;;;;;;7.36;nan;99484.53;4545045;26;19928;-73
2024/04/19 10:08:55;;;;;;;;;;;;;;;7.60;nan;99486.78;4547501;26;19935;-72
2024/04/19 10:10:56;;;;;;;;;;;;;;;7.67;nan;99485.25;4517599;26;20385;-73
2024/04/19 10:12:56;;;;;;;;;;;;;;;7.59;nan;99477.94;4549866;26;19928;-73
2024/04/19 10:14:57;;;;;;;;;;;;;;;7.57;nan;99477.25;4550419;26;19928;-73
2024/04/19 10:16:58;;;;;;;;;;;;;;;7.75;nan;99473.88;4551343;26;19950;-73
2024/04/19 10:19:00;;;;;;;;;;;;;;;7.51;nan;99474.31;4545054;26;19928;-72
2024/04/19 10:21:00;;;;;;;;;;;;;;;7.41;nan;99469.84;4539192;26;19940;-72
2024/04/19 10:23:00;;;;;;;;;;;;;;;7.59;nan;99469.16;4506522;26;19966;-72
2024/04/19 10:25:01;;;;;;;;;;;;;;;7.41;nan;99461.00;4539083;26;19977;-72
2024/04/19 10:27:02;;;;;;;;;;;;;;;7.73;nan;99451.91;4538784;26;19958;-72
2024/04/19 10:29:03;;;;;;;;;;;;;;;7.71;nan;99459.19;4538680;26;19940;-71
2024/04/19 10:31:05;;;;;;;;;;;;;;;7.43;nan;99451.06;4539212;26;19932;-71
2024/04/19 10:33:06;;;;;;;;;;;;;;;7.66;nan;99454.28;4543114;26;19928;-72
2024/04/19 10:35:18;;;;;;;;;;;;;;;7.40;nan;99446.88;4544086;26;19996;-72
2024/04/19 10:37:19;;;;;;;;;;;;;;;7.58;nan;99447.00;4544703;26;19935;-73
2024/04/19 10:39:20;;;;;;;;;;;;;;;7.51;nan;99445.91;4512359;26;19929;-71
2024/04/19 10:41:21;;;;;;;;;;;;;;;7.68;nan;99435.53;4544916;26;19927;-72
2024/04/19 10:43:22;;;;;;;;;;;;;;;7.48;nan;99435.53;4542652;26;20454;-73
2024/04/19 10:45:23;;;;;;;;;;;;;;;7.43;nan;99427.97;4542016;26;19928;-72
2024/04/19 10:47:24;;;;;;;;;;;;;;;7.79;nan;99419.41;4542919;26;20363;-72
2024/04/19 10:49:25;;;;;;;;;;;;;;;7.85;nan;99429.47;4542579;26;19927;-72
2024/04/19 10:51:27;;;;;;;;;;;;;;;7.64;nan;99419.00;4543073;26;19928;-72
2024/04/19 10:53:28;;;;;;;;;;;;;;;7.65;nan;99416.19;4542898;26;19935;-74
2024/04/19 10:55:28;;;;;;;;;;;;;;;7.77;nan;99416.03;4510839;26;19932;-72
2024/04/19 10:57:29;;;;;;;;;;;;;;;7.55;nan;99415.38;4542748;26;19935;-72